This is the latest recevied weather packets stored in our database for station/object APPOWX. If no packets are shown the sender has not sent any weather packets the latest 10 day(s).
| Time | Temp. | Humidity | Pressure | Rain* | Wind** | Luminosity | Snow |
|---|---|---|---|---|---|---|---|
| 1777303664 | 16.67° C | 56% | 1027 hPa | 0 mm | - | - | - |
| 1777303604 | 16.67° C | 53% | 1027 hPa | 0 mm | - | - | - |
| 1777303543 | 16.67° C | 55% | 1026.9 hPa | 0 mm | - | - | - |
| 1777303484 | 17.22° C | 50% | 1027.2 hPa | 0 mm | - | - | - |
| 1777303423 | 17.22° C | 51% | 1027.1 hPa | 0 mm | - | - | - |
| 1777303362 | 17.78° C | 54% | 1027 hPa | 0 mm | - | - | - |
| 1777303302 | 17.22° C | 50% | 1027.2 hPa | 0 mm | - | - | - |
| 1777303242 | 16.67° C | 50% | 1027 hPa | 0 mm | - | - | - |
| 1777303182 | 16.67° C | 50% | 1027 hPa | 0 mm | - | - | - |
| 1777303122 | 16.67° C | 50% | 1026.9 hPa | 0 mm | - | - | - |
| 1777303061 | 16.67° C | 51% | 1027.2 hPa | 0 mm | - | - | - |
| 1777303001 | 16.67° C | 51% | 1027.3 hPa | 0 mm | - | - | - |
| 1777302941 | 16.67° C | 53% | 1027.1 hPa | 0 mm | - | - | - |
| 1777302881 | 16.67° C | 53% | 1027.1 hPa | 0 mm | - | - | - |
| 1777302821 | 16.67° C | 50% | 1027.2 hPa | 0 mm | - | - | - |
| 1777302761 | 16.67° C | 49% | 1027.3 hPa | 0 mm | - | - | - |
| 1777302701 | 17.22° C | 56% | 1027 hPa | 0 mm | - | - | - |
| 1777302641 | 17.22° C | 52% | 1027.4 hPa | 0 mm | - | - | - |
| 1777302581 | 17.22° C | 52% | 1027.3 hPa | 0 mm | - | - | - |
| 1777302521 | 16.67° C | 49% | 1027 hPa | 0 mm | - | - | - |
| 1777302460 | 16.67° C | 51% | 1027.2 hPa | 0 mm | - | - | - |
| 1777302400 | 16.67° C | 50% | 1027.2 hPa | 0 mm | - | - | - |
| 1777302340 | 16.67° C | 50% | 1027 hPa | 0 mm | - | - | - |
| 1777302280 | 16.67° C | 50% | 1027 hPa | 0 mm | - | - | - |
| 1777302219 | 16.67° C | 47% | 1027.1 hPa | 0 mm | - | - | - |
* Rain latest hour (hover to see other rain measurements)
** Current wind speed in m/s (hover to see current wind gust speed)